Terminal Aerodrome Forecast
Issued by NWS

Home | Current Version | Previous Version | Graphics & Text | Print | Product List | Glossary On
Versions: 1 2 3 4 5 6 7 8 9 10 11 12 13 14 15 16 17 18 19
000
FTUS42 KMHX 230559
TAFISO
TAF
KISO 230559Z 2306/2406 07013G16KT P6SM -RA VCTS OVC003CB
     FM230800 12009KT P6SM VCSH OVC005
     FM231200 22007KT P6SM SCT015 BKN080
     FM231800 27005KT P6SM VCSH BKN035
     FM240000 30008KT P6SM BKN025
      AMD LTD TO CLD VIS AND WIND=

USA.gov is the U.S. government's official web portal to all federal, state and local government web resources and services.